Flugplatz Verden-Scharnhorst

Für EDWV sind keine METAR/TAF Berichte vorhanden.
Es werden die Flugwettermeldungen vom Flugplatz Bremen in 34 km Entfernung angezeigt.

Bericht für EDDW

vom 21.07. um 20:20 UTC

Wind 5 kt aus 300°

Sichtweite 10 km oder mehr

gute Sicht, keine Wolken < 5000 ft, keine CB, keine Wettererscheinungen (CAVOK)

Temperatur 17.0°C

Taupunkt 12.0°C

Luftfeuchtigkeit 72%

Luftdruck 1022 hPa

keine wesentliche Wetteränderung innerhalb den nächsten 2 Stunden zu erwarten

EDDW 212020Z 30005KT CAVOK 17/12 Q1022 NOSIG

Prognose für EDDW

vom 21.07. um 00:00 UTC

Zwischen 00:00 UTC und 00:00 UTC

Wind 8 kt aus 310°

Sichtweite 10 km oder mehr

keine signifikanten Wettererscheinungen

keine Wolken


Zwischen 00:00 und 00:00 UTC übergehend zu

variable Windrichtung mit 3 kt

Sichtweite 10 km oder mehr

keine signifikanten Wettererscheinungen

keine Wolken


Am 22.07. zwischen 00:00 und 00:00 UTC übergehend zu

Wind 7 kt aus 230°

Sichtweite 10 km oder mehr

keine signifikanten Wettererscheinungen

keine Wolken

TAF EDDW 211700Z 2118/2218 31008KT CAVOK BECMG 2119/2122 VRB03KT BECMG 2206/2208 23007KT
Impressum